sensor_id;sensor_type;location;lat;lon;timestamp;P1;durP1;ratioP1;P2;durP2;ratioP2
39994;SDS011;25686;51.908;10.418;2024-02-26T00:01:21;1.23;;;0.90;;
39994;SDS011;25686;51.908;10.418;2024-02-26T00:03:22;1.83;;;0.80;;
39994;SDS011;25686;51.908;10.418;2024-02-26T00:05:23;1.37;;;0.73;;
39994;SDS011;25686;51.908;10.418;2024-02-26T00:07:24;1.40;;;0.80;;
39994;SDS011;25686;51.908;10.418;2024-02-26T00:09:25;1.43;;;0.90;;
39994;SDS011;25686;51.908;10.418;2024-02-26T00:11:26;0.93;;;0.90;;
39994;SDS011;25686;51.908;10.418;2024-02-26T00:13:27;1.03;;;0.60;;
39994;SDS011;25686;51.908;10.418;2024-02-26T00:15:28;1.77;;;0.70;;
39994;SDS011;25686;51.908;10.418;2024-02-26T00:17:29;0.90;;;0.77;;
39994;SDS011;25686;51.908;10.418;2024-02-26T00:19:30;1.20;;;0.80;;
39994;SDS011;25686;51.908;10.418;2024-02-26T00:21:31;1.17;;;0.80;;
39994;SDS011;25686;51.908;10.418;2024-02-26T00:23:32;1.57;;;0.80;;
39994;SDS011;25686;51.908;10.418;2024-02-26T00:25:33;1.00;;;0.87;;
39994;SDS011;25686;51.908;10.418;2024-02-26T00:27:36;1.80;;;0.80;;
39994;SDS011;25686;51.908;10.418;2024-02-26T00:29:37;0.90;;;0.90;;
39994;SDS011;25686;51.908;10.418;2024-02-26T00:31:38;1.20;;;1.07;;
39994;SDS011;25686;51.908;10.418;2024-02-26T00:33:39;1.53;;;0.80;;
39994;SDS011;25686;51.908;10.418;2024-02-26T00:35:40;1.83;;;1.13;;
39994;SDS011;25686;51.908;10.418;2024-02-26T00:37:41;5.23;;;2.20;;
39994;SDS011;25686;51.908;10.418;2024-02-26T00:39:43;4.17;;;1.50;;
39994;SDS011;25686;51.908;10.418;2024-02-26T00:41:44;4.13;;;1.80;;
39994;SDS011;25686;51.908;10.418;2024-02-26T00:43:45;2.93;;;1.60;;
39994;SDS011;25686;51.908;10.418;2024-02-26T00:45:46;4.30;;;1.50;;
39994;SDS011;25686;51.908;10.418;2024-02-26T00:47:47;4.70;;;1.60;;
39994;SDS011;25686;51.908;10.418;2024-02-26T00:49:48;3.60;;;1.63;;
39994;SDS011;25686;51.908;10.418;2024-02-26T00:51:49;3.00;;;1.40;;
39994;SDS011;25686;51.908;10.418;2024-02-26T00:53:50;3.10;;;1.40;;
39994;SDS011;25686;51.908;10.418;2024-02-26T00:55:51;2.83;;;1.30;;
39994;SDS011;25686;51.908;10.418;2024-02-26T00:57:52;3.27;;;1.00;;
39994;SDS011;25686;51.908;10.418;2024-02-26T00:59:53;1.83;;;0.80;;
39994;SDS011;25686;51.908;10.418;2024-02-26T01:01:56;1.53;;;1.20;;
39994;SDS011;25686;51.908;10.418;2024-02-26T01:03:58;3.87;;;1.33;;
39994;SDS011;25686;51.908;10.418;2024-02-26T01:05:59;1.40;;;1.00;;
39994;SDS011;25686;51.908;10.418;2024-02-26T01:08:00;2.20;;;1.10;;
39994;SDS011;25686;51.908;10.418;2024-02-26T01:10:02;2.17;;;1.10;;
39994;SDS011;25686;51.908;10.418;2024-02-26T01:12:03;3.37;;;1.20;;
39994;SDS011;25686;51.908;10.418;2024-02-26T01:14:04;1.83;;;1.20;;
39994;SDS011;25686;51.908;10.418;2024-02-26T01:16:06;2.17;;;1.17;;
39994;SDS011;25686;51.908;10.418;2024-02-26T01:18:07;1.33;;;1.07;;
39994;SDS011;25686;51.908;10.418;2024-02-26T01:20:08;1.83;;;0.90;;
39994;SDS011;25686;51.908;10.418;2024-02-26T01:22:09;2.17;;;1.00;;
39994;SDS011;25686;51.908;10.418;2024-02-26T01:24:10;1.97;;;1.07;;
39994;SDS011;25686;51.908;10.418;2024-02-26T01:26:11;2.00;;;1.10;;
39994;SDS011;25686;51.908;10.418;2024-02-26T01:28:13;1.07;;;0.80;;
39994;SDS011;25686;51.908;10.418;2024-02-26T01:30:14;1.73;;;0.80;;
39994;SDS011;25686;51.908;10.418;2024-02-26T01:32:16;2.10;;;1.00;;
39994;SDS011;25686;51.908;10.418;2024-02-26T01:34:18;1.67;;;0.80;;
39994;SDS011;25686;51.908;10.418;2024-02-26T01:36:19;3.20;;;1.00;;
39994;SDS011;25686;51.908;10.418;2024-02-26T01:38:21;1.33;;;0.80;;
39994;SDS011;25686;51.908;10.418;2024-02-26T01:40:21;1.07;;;0.63;;
39994;SDS011;25686;51.908;10.418;2024-02-26T01:42:22;1.77;;;1.40;;
39994;SDS011;25686;51.908;10.418;2024-02-26T01:44:23;1.63;;;1.20;;
39994;SDS011;25686;51.908;10.418;2024-02-26T01:46:25;2.23;;;0.90;;
39994;SDS011;25686;51.908;10.418;2024-02-26T01:48:26;1.83;;;0.80;;
39994;SDS011;25686;51.908;10.418;2024-02-26T01:50:27;0.80;;;0.80;;
39994;SDS011;25686;51.908;10.418;2024-02-26T01:52:28;1.20;;;0.83;;
39994;SDS011;25686;51.908;10.418;2024-02-26T01:54:29;1.53;;;0.90;;
39994;SDS011;25686;51.908;10.418;2024-02-26T01:56:31;2.23;;;0.80;;
39994;SDS011;25686;51.908;10.418;2024-02-26T01:58:32;0.63;;;0.63;;
39994;SDS011;25686;51.908;10.418;2024-02-26T02:00:34;5.13;;;0.90;;
39994;SDS011;25686;51.908;10.418;2024-02-26T02:02:35;1.77;;;0.70;;
39994;SDS011;25686;51.908;10.418;2024-02-26T02:04:36;1.10;;;0.73;;
39994;SDS011;25686;51.908;10.418;2024-02-26T02:06:38;1.00;;;0.70;;
39994;SDS011;25686;51.908;10.418;2024-02-26T02:08:41;1.33;;;0.73;;
39994;SDS011;25686;51.908;10.418;2024-02-26T02:10:42;1.27;;;0.70;;
39994;SDS011;25686;51.908;10.418;2024-02-26T02:12:43;1.60;;;0.63;;
39994;SDS011;25686;51.908;10.418;2024-02-26T02:14:44;1.43;;;0.93;;
39994;SDS011;25686;51.908;10.418;2024-02-26T02:16:46;1.63;;;0.90;;
39994;SDS011;25686;51.908;10.418;2024-02-26T02:18:47;0.70;;;0.70;;
39994;SDS011;25686;51.908;10.418;2024-02-26T02:20:48;1.67;;;0.87;;
39994;SDS011;25686;51.908;10.418;2024-02-26T02:22:49;1.10;;;0.90;;
39994;SDS011;25686;51.908;10.418;2024-02-26T02:24:52;1.27;;;0.70;;
39994;SDS011;25686;51.908;10.418;2024-02-26T02:26:53;1.70;;;1.00;;
39994;SDS011;25686;51.908;10.418;2024-02-26T02:28:54;2.07;;;0.80;;
39994;SDS011;25686;51.908;10.418;2024-02-26T02:30:55;0.67;;;0.60;;
39994;SDS011;25686;51.908;10.418;2024-02-26T02:32:57;1.17;;;0.90;;
39994;SDS011;25686;51.908;10.418;2024-02-26T02:34:58;1.73;;;0.80;;
39994;SDS011;25686;51.908;10.418;2024-02-26T02:36:59;2.27;;;0.90;;
39994;SDS011;25686;51.908;10.418;2024-02-26T02:39:00;1.17;;;0.80;;
39994;SDS011;25686;51.908;10.418;2024-02-26T02:41:01;0.87;;;0.70;;
39994;SDS011;25686;51.908;10.418;2024-02-26T02:43:02;2.20;;;0.70;;
39994;SDS011;25686;51.908;10.418;2024-02-26T02:45:04;1.03;;;0.70;;
39994;SDS011;25686;51.908;10.418;2024-02-26T02:47:05;2.37;;;0.80;;
39994;SDS011;25686;51.908;10.418;2024-02-26T02:49:09;1.23;;;0.60;;
39994;SDS011;25686;51.908;10.418;2024-02-26T02:51:10;1.10;;;0.80;;
39994;SDS011;25686;51.908;10.418;2024-02-26T02:53:11;0.70;;;0.70;;
39994;SDS011;25686;51.908;10.418;2024-02-26T02:55:12;0.53;;;0.53;;
39994;SDS011;25686;51.908;10.418;2024-02-26T02:57:13;1.33;;;0.80;;
39994;SDS011;25686;51.908;10.418;2024-02-26T02:59:14;1.43;;;0.70;;
39994;SDS011;25686;51.908;10.418;2024-02-26T03:01:15;1.00;;;0.70;;
39994;SDS011;25686;51.908;10.418;2024-02-26T03:03:16;1.63;;;0.60;;
39994;SDS011;25686;51.908;10.418;2024-02-26T03:05:17;1.63;;;1.00;;
39994;SDS011;25686;51.908;10.418;2024-02-26T03:07:18;1.37;;;0.60;;
39994;SDS011;25686;51.908;10.418;2024-02-26T03:09:19;0.93;;;0.60;;
39994;SDS011;25686;51.908;10.418;2024-02-26T03:11:20;0.83;;;0.60;;
39994;SDS011;25686;51.908;10.418;2024-02-26T03:13:21;0.70;;;0.53;;
39994;SDS011;25686;51.908;10.418;2024-02-26T03:15:22;1.00;;;0.50;;
39994;SDS011;25686;51.908;10.418;2024-02-26T03:17:23;1.07;;;0.60;;
39994;SDS011;25686;51.908;10.418;2024-02-26T03:19:24;1.73;;;0.73;;
39994;SDS011;25686;51.908;10.418;2024-02-26T03:21:25;0.60;;;0.60;;
39994;SDS011;25686;51.908;10.418;2024-02-26T03:23:26;0.60;;;0.60;;
39994;SDS011;25686;51.908;10.418;2024-02-26T03:25:27;1.23;;;0.60;;
39994;SDS011;25686;51.908;10.418;2024-02-26T03:27:28;0.73;;;0.50;;
39994;SDS011;25686;51.908;10.418;2024-02-26T03:29:29;1.07;;;0.77;;
39994;SDS011;25686;51.908;10.418;2024-02-26T03:31:31;1.30;;;0.70;;
39994;SDS011;25686;51.908;10.418;2024-02-26T03:33:32;2.03;;;0.80;;
39994;SDS011;25686;51.908;10.418;2024-02-26T03:35:33;1.80;;;1.00;;
39994;SDS011;25686;51.908;10.418;2024-02-26T03:37:34;2.10;;;1.00;;
39994;SDS011;25686;51.908;10.418;2024-02-26T03:39:35;1.40;;;0.90;;
39994;SDS011;25686;51.908;10.418;2024-02-26T03:41:36;1.83;;;0.93;;
39994;SDS011;25686;51.908;10.418;2024-02-26T03:43:37;2.10;;;0.90;;
39994;SDS011;25686;51.908;10.418;2024-02-26T03:45:38;1.43;;;1.13;;
39994;SDS011;25686;51.908;10.418;2024-02-26T03:47:38;1.67;;;0.90;;
39994;SDS011;25686;51.908;10.418;2024-02-26T03:49:40;1.23;;;0.90;;
39994;SDS011;25686;51.908;10.418;2024-02-26T03:51:41;1.47;;;0.87;;
39994;SDS011;25686;51.908;10.418;2024-02-26T03:53:42;1.00;;;0.80;;
39994;SDS011;25686;51.908;10.418;2024-02-26T03:55:42;0.80;;;0.70;;
39994;SDS011;25686;51.908;10.418;2024-02-26T03:57:43;1.43;;;0.90;;
39994;SDS011;25686;51.908;10.418;2024-02-26T03:59:44;1.83;;;1.00;;
39994;SDS011;25686;51.908;10.418;2024-02-26T04:01:46;1.10;;;1.00;;
39994;SDS011;25686;51.908;10.418;2024-02-26T04:03:47;1.00;;;0.87;;
39994;SDS011;25686;51.908;10.418;2024-02-26T04:05:48;2.40;;;1.13;;
39994;SDS011;25686;51.908;10.418;2024-02-26T04:07:49;1.37;;;1.10;;
39994;SDS011;25686;51.908;10.418;2024-02-26T04:09:50;1.83;;;1.20;;
39994;SDS011;25686;51.908;10.418;2024-02-26T04:11:51;1.73;;;1.30;;
39994;SDS011;25686;51.908;10.418;2024-02-26T04:13:54;2.80;;;1.40;;
39994;SDS011;25686;51.908;10.418;2024-02-26T04:15:56;3.77;;;1.40;;
39994;SDS011;25686;51.908;10.418;2024-02-26T04:17:58;3.03;;;1.27;;
39994;SDS011;25686;51.908;10.418;2024-02-26T04:19:59;2.00;;;1.47;;
39994;SDS011;25686;51.908;10.418;2024-02-26T04:21:59;1.50;;;1.20;;
39994;SDS011;25686;51.908;10.418;2024-02-26T04:24:01;2.70;;;1.37;;
39994;SDS011;25686;51.908;10.418;2024-02-26T04:26:02;2.80;;;1.73;;
39994;SDS011;25686;51.908;10.418;2024-02-26T04:28:04;3.50;;;1.73;;
39994;SDS011;25686;51.908;10.418;2024-02-26T04:30:05;4.67;;;1.83;;
39994;SDS011;25686;51.908;10.418;2024-02-26T04:32:06;2.17;;;1.53;;
39994;SDS011;25686;51.908;10.418;2024-02-26T04:34:07;2.17;;;1.60;;
39994;SDS011;25686;51.908;10.418;2024-02-26T04:36:14;2.83;;;1.97;;
39994;SDS011;25686;51.908;10.418;2024-02-26T04:38:16;2.57;;;1.70;;
39994;SDS011;25686;51.908;10.418;2024-02-26T04:40:17;3.83;;;2.10;;
39994;SDS011;25686;51.908;10.418;2024-02-26T04:42:18;4.00;;;2.27;;
39994;SDS011;25686;51.908;10.418;2024-02-26T04:44:19;2.40;;;2.00;;
39994;SDS011;25686;51.908;10.418;2024-02-26T04:46:20;5.23;;;2.40;;
39994;SDS011;25686;51.908;10.418;2024-02-26T04:48:24;4.87;;;2.50;;
39994;SDS011;25686;51.908;10.418;2024-02-26T04:50:25;4.00;;;2.40;;
39994;SDS011;25686;51.908;10.418;2024-02-26T04:52:26;4.13;;;2.50;;
39994;SDS011;25686;51.908;10.418;2024-02-26T04:54:27;3.33;;;2.57;;
39994;SDS011;25686;51.908;10.418;2024-02-26T04:56:28;5.47;;;2.90;;
39994;SDS011;25686;51.908;10.418;2024-02-26T04:58:29;8.57;;;3.50;;
39994;SDS011;25686;51.908;10.418;2024-02-26T05:00:30;6.00;;;3.43;;
39994;SDS011;25686;51.908;10.418;2024-02-26T05:02:31;8.37;;;3.60;;
39994;SDS011;25686;51.908;10.418;2024-02-26T05:04:33;8.70;;;3.50;;
39994;SDS011;25686;51.908;10.418;2024-02-26T05:06:36;6.53;;;4.27;;
39994;SDS011;25686;51.908;10.418;2024-02-26T05:08:37;8.93;;;4.87;;
39994;SDS011;25686;51.908;10.418;2024-02-26T05:10:38;7.57;;;4.70;;
39994;SDS011;25686;51.908;10.418;2024-02-26T05:12:40;9.13;;;5.20;;
39994;SDS011;25686;51.908;10.418;2024-02-26T05:14:42;8.10;;;4.63;;
39994;SDS011;25686;51.908;10.418;2024-02-26T05:16:43;7.63;;;4.83;;
39994;SDS011;25686;51.908;10.418;2024-02-26T05:18:44;8.57;;;5.13;;
39994;SDS011;25686;51.908;10.418;2024-02-26T05:20:45;9.47;;;4.90;;
39994;SDS011;25686;51.908;10.418;2024-02-26T05:22:46;9.80;;;5.30;;
39994;SDS011;25686;51.908;10.418;2024-02-26T05:24:48;7.70;;;4.83;;
39994;SDS011;25686;51.908;10.418;2024-02-26T05:26:49;11.07;;;5.60;;
39994;SDS011;25686;51.908;10.418;2024-02-26T05:28:50;9.47;;;4.93;;
39994;SDS011;25686;51.908;10.418;2024-02-26T05:30:51;8.03;;;5.50;;
39994;SDS011;25686;51.908;10.418;2024-02-26T05:32:52;8.97;;;5.70;;
39994;SDS011;25686;51.908;10.418;2024-02-26T05:34:53;7.30;;;5.17;;
39994;SDS011;25686;51.908;10.418;2024-02-26T05:36:54;8.97;;;5.80;;
39994;SDS011;25686;51.908;10.418;2024-02-26T05:38:54;10.03;;;5.70;;
39994;SDS011;25686;51.908;10.418;2024-02-26T05:40:57;10.83;;;6.00;;
39994;SDS011;25686;51.908;10.418;2024-02-26T05:42:58;8.27;;;5.63;;
39994;SDS011;25686;51.908;10.418;2024-02-26T05:44:59;11.23;;;6.70;;
39994;SDS011;25686;51.908;10.418;2024-02-26T05:47:05;10.20;;;6.70;;
39994;SDS011;25686;51.908;10.418;2024-02-26T05:49:06;10.73;;;6.90;;
39994;SDS011;25686;51.908;10.418;2024-02-26T05:51:07;11.20;;;7.13;;
39994;SDS011;25686;51.908;10.418;2024-02-26T05:53:08;13.27;;;7.33;;
39994;SDS011;25686;51.908;10.418;2024-02-26T05:55:09;16.87;;;7.43;;
39994;SDS011;25686;51.908;10.418;2024-02-26T05:57:10;14.20;;;7.37;;
39994;SDS011;25686;51.908;10.418;2024-02-26T05:59:11;12.97;;;7.47;;
39994;SDS011;25686;51.908;10.418;2024-02-26T06:01:12;14.40;;;8.03;;
39994;SDS011;25686;51.908;10.418;2024-02-26T06:03:13;13.87;;;7.60;;
39994;SDS011;25686;51.908;10.418;2024-02-26T06:05:14;14.53;;;8.13;;
39994;SDS011;25686;51.908;10.418;2024-02-26T06:07:15;12.40;;;7.27;;
39994;SDS011;25686;51.908;10.418;2024-02-26T06:09:16;14.37;;;7.40;;
39994;SDS011;25686;51.908;10.418;2024-02-26T06:11:17;17.27;;;8.30;;
39994;SDS011;25686;51.908;10.418;2024-02-26T06:13:19;16.13;;;8.20;;
39994;SDS011;25686;51.908;10.418;2024-02-26T06:15:20;15.77;;;7.53;;
39994;SDS011;25686;51.908;10.418;2024-02-26T06:17:21;12.57;;;7.63;;
39994;SDS011;25686;51.908;10.418;2024-02-26T06:19:22;12.57;;;7.93;;
39994;SDS011;25686;51.908;10.418;2024-02-26T06:21:23;13.17;;;6.73;;
39994;SDS011;25686;51.908;10.418;2024-02-26T06:23:24;13.27;;;7.97;;
39994;SDS011;25686;51.908;10.418;2024-02-26T06:25:26;12.40;;;7.27;;
39994;SDS011;25686;51.908;10.418;2024-02-26T06:27:26;12.03;;;7.73;;
39994;SDS011;25686;51.908;10.418;2024-02-26T06:29:27;14.63;;;7.80;;
39994;SDS011;25686;51.908;10.418;2024-02-26T06:31:28;13.63;;;8.43;;
39994;SDS011;25686;51.908;10.418;2024-02-26T06:33:29;13.13;;;7.83;;
39994;SDS011;25686;51.908;10.418;2024-02-26T06:35:30;14.27;;;8.50;;
39994;SDS011;25686;51.908;10.418;2024-02-26T06:37:31;12.90;;;7.90;;
39994;SDS011;25686;51.908;10.418;2024-02-26T06:39:33;11.63;;;7.63;;
39994;SDS011;25686;51.908;10.418;2024-02-26T06:41:34;12.77;;;7.80;;
39994;SDS011;25686;51.908;10.418;2024-02-26T06:43:36;12.13;;;7.93;;
39994;SDS011;25686;51.908;10.418;2024-02-26T06:45:37;11.27;;;6.90;;
39994;SDS011;25686;51.908;10.418;2024-02-26T06:47:38;10.83;;;7.50;;
39994;SDS011;25686;51.908;10.418;2024-02-26T06:49:39;10.77;;;6.93;;
39994;SDS011;25686;51.908;10.418;2024-02-26T06:51:40;8.67;;;5.77;;
39994;SDS011;25686;51.908;10.418;2024-02-26T06:53:41;11.17;;;6.83;;
39994;SDS011;25686;51.908;10.418;2024-02-26T06:55:42;10.17;;;6.57;;
39994;SDS011;25686;51.908;10.418;2024-02-26T06:57:43;11.17;;;6.73;;
39994;SDS011;25686;51.908;10.418;2024-02-26T06:59:44;9.63;;;6.40;;
39994;SDS011;25686;51.908;10.418;2024-02-26T07:01:47;9.77;;;6.33;;
39994;SDS011;25686;51.908;10.418;2024-02-26T07:03:48;10.10;;;6.43;;
39994;SDS011;25686;51.908;10.418;2024-02-26T07:05:49;13.03;;;6.90;;
39994;SDS011;25686;51.908;10.418;2024-02-26T07:07:50;11.23;;;6.33;;
39994;SDS011;25686;51.908;10.418;2024-02-26T07:09:51;12.00;;;6.70;;
39994;SDS011;25686;51.908;10.418;2024-02-26T07:11:52;10.80;;;6.77;;
39994;SDS011;25686;51.908;10.418;2024-02-26T07:13:53;11.83;;;7.20;;
39994;SDS011;25686;51.908;10.418;2024-02-26T07:15:54;11.83;;;7.47;;
39994;SDS011;25686;51.908;10.418;2024-02-26T07:17:55;11.80;;;7.07;;
39994;SDS011;25686;51.908;10.418;2024-02-26T07:19:56;13.97;;;8.00;;
39994;SDS011;25686;51.908;10.418;2024-02-26T07:21:57;11.57;;;7.47;;
39994;SDS011;25686;51.908;10.418;2024-02-26T07:23:58;13.17;;;7.97;;
39994;SDS011;25686;51.908;10.418;2024-02-26T07:25:59;15.10;;;8.40;;
39994;SDS011;25686;51.908;10.418;2024-02-26T07:28:00;13.27;;;7.67;;
39994;SDS011;25686;51.908;10.418;2024-02-26T07:30:01;13.93;;;8.53;;
39994;SDS011;25686;51.908;10.418;2024-02-26T07:32:02;14.73;;;8.77;;
39994;SDS011;25686;51.908;10.418;2024-02-26T07:34:03;14.67;;;9.70;;
39994;SDS011;25686;51.908;10.418;2024-02-26T07:36:04;16.33;;;9.00;;
39994;SDS011;25686;51.908;10.418;2024-02-26T07:38:05;15.33;;;9.53;;
39994;SDS011;25686;51.908;10.418;2024-02-26T07:40:06;16.53;;;10.50;;
39994;SDS011;25686;51.908;10.418;2024-02-26T07:42:08;15.47;;;10.00;;
39994;SDS011;25686;51.908;10.418;2024-02-26T07:44:09;17.63;;;10.63;;
39994;SDS011;25686;51.908;10.418;2024-02-26T07:46:13;19.57;;;10.50;;
39994;SDS011;25686;51.908;10.418;2024-02-26T07:48:14;15.57;;;10.13;;
39994;SDS011;25686;51.908;10.418;2024-02-26T07:50:15;18.00;;;9.67;;
39994;SDS011;25686;51.908;10.418;2024-02-26T07:52:16;16.43;;;10.40;;
39994;SDS011;25686;51.908;10.418;2024-02-26T07:54:17;18.70;;;10.80;;
39994;SDS011;25686;51.908;10.418;2024-02-26T07:56:19;19.43;;;11.57;;
39994;SDS011;25686;51.908;10.418;2024-02-26T07:58:20;21.87;;;10.80;;
39994;SDS011;25686;51.908;10.418;2024-02-26T08:00:21;19.53;;;12.13;;
39994;SDS011;25686;51.908;10.418;2024-02-26T08:02:22;21.53;;;11.87;;
39994;SDS011;25686;51.908;10.418;2024-02-26T08:04:23;20.60;;;11.53;;
39994;SDS011;25686;51.908;10.418;2024-02-26T08:06:24;21.70;;;11.90;;
39994;SDS011;25686;51.908;10.418;2024-02-26T08:08:25;18.40;;;11.70;;
39994;SDS011;25686;51.908;10.418;2024-02-26T08:10:26;18.33;;;12.03;;
39994;SDS011;25686;51.908;10.418;2024-02-26T08:12:27;20.00;;;12.63;;
39994;SDS011;25686;51.908;10.418;2024-02-26T08:14:28;24.00;;;12.60;;
39994;SDS011;25686;51.908;10.418;2024-02-26T08:16:29;19.93;;;12.00;;
39994;SDS011;25686;51.908;10.418;2024-02-26T08:18:30;21.50;;;12.20;;
39994;SDS011;25686;51.908;10.418;2024-02-26T08:20:31;20.17;;;12.53;;
39994;SDS011;25686;51.908;10.418;2024-02-26T08:22:32;22.10;;;13.43;;
39994;SDS011;25686;51.908;10.418;2024-02-26T08:24:33;22.30;;;12.57;;
39994;SDS011;25686;51.908;10.418;2024-02-26T08:26:34;21.63;;;12.63;;
39994;SDS011;25686;51.908;10.418;2024-02-26T08:28:36;23.40;;;13.40;;
39994;SDS011;25686;51.908;10.418;2024-02-26T08:30:37;20.10;;;12.37;;
39994;SDS011;25686;51.908;10.418;2024-02-26T08:32:38;19.87;;;12.00;;
39994;SDS011;25686;51.908;10.418;2024-02-26T08:34:39;19.20;;;12.70;;
39994;SDS011;25686;51.908;10.418;2024-02-26T08:36:40;18.80;;;12.50;;
39994;SDS011;25686;51.908;10.418;2024-02-26T08:38:43;21.37;;;13.30;;
39994;SDS011;25686;51.908;10.418;2024-02-26T08:40:44;26.97;;;14.03;;
39994;SDS011;25686;51.908;10.418;2024-02-26T08:42:45;20.27;;;12.23;;
39994;SDS011;25686;51.908;10.418;2024-02-26T08:44:46;22.50;;;12.80;;
39994;SDS011;25686;51.908;10.418;2024-02-26T08:46:47;22.13;;;13.10;;
39994;SDS011;25686;51.908;10.418;2024-02-26T08:48:48;21.30;;;12.93;;
39994;SDS011;25686;51.908;10.418;2024-02-26T08:50:49;19.30;;;12.80;;
39994;SDS011;25686;51.908;10.418;2024-02-26T08:52:50;20.57;;;12.60;;
39994;SDS011;25686;51.908;10.418;2024-02-26T08:54:53;20.03;;;12.57;;
39994;SDS011;25686;51.908;10.418;2024-02-26T08:56:54;21.77;;;12.37;;
39994;SDS011;25686;51.908;10.418;2024-02-26T08:58:55;21.60;;;13.23;;
39994;SDS011;25686;51.908;10.418;2024-02-26T09:00:57;22.03;;;13.77;;
39994;SDS011;25686;51.908;10.418;2024-02-26T09:02:58;22.17;;;12.20;;
39994;SDS011;25686;51.908;10.418;2024-02-26T09:04:59;17.70;;;12.43;;
39994;SDS011;25686;51.908;10.418;2024-02-26T09:07:00;21.80;;;13.10;;
39994;SDS011;25686;51.908;10.418;2024-02-26T09:09:02;19.43;;;13.17;;
39994;SDS011;25686;51.908;10.418;2024-02-26T09:11:04;24.90;;;12.70;;
39994;SDS011;25686;51.908;10.418;2024-02-26T09:13:05;19.97;;;12.90;;
39994;SDS011;25686;51.908;10.418;2024-02-26T09:15:06;19.97;;;13.13;;
39994;SDS011;25686;51.908;10.418;2024-02-26T09:17:07;20.87;;;12.97;;
39994;SDS011;25686;51.908;10.418;2024-02-26T09:19:08;23.13;;;13.47;;
39994;SDS011;25686;51.908;10.418;2024-02-26T09:21:09;20.70;;;13.53;;
39994;SDS011;25686;51.908;10.418;2024-02-26T09:23:10;24.47;;;14.57;;
39994;SDS011;25686;51.908;10.418;2024-02-26T09:25:11;21.17;;;13.53;;
39994;SDS011;25686;51.908;10.418;2024-02-26T09:27:13;23.00;;;14.17;;
39994;SDS011;25686;51.908;10.418;2024-02-26T09:29:14;24.80;;;15.10;;
39994;SDS011;25686;51.908;10.418;2024-02-26T09:31:15;27.00;;;15.87;;
39994;SDS011;25686;51.908;10.418;2024-02-26T09:33:16;26.00;;;15.23;;
39994;SDS011;25686;51.908;10.418;2024-02-26T09:35:17;31.20;;;15.70;;
39994;SDS011;25686;51.908;10.418;2024-02-26T09:37:18;26.73;;;16.30;;
39994;SDS011;25686;51.908;10.418;2024-02-26T09:39:19;26.97;;;16.00;;
39994;SDS011;25686;51.908;10.418;2024-02-26T09:41:21;24.17;;;14.63;;
39994;SDS011;25686;51.908;10.418;2024-02-26T09:43:22;28.13;;;16.23;;
39994;SDS011;25686;51.908;10.418;2024-02-26T09:45:24;27.93;;;17.93;;
39994;SDS011;25686;51.908;10.418;2024-02-26T09:47:25;32.00;;;16.47;;
39994;SDS011;25686;51.908;10.418;2024-02-26T09:49:27;27.07;;;16.80;;
39994;SDS011;25686;51.908;10.418;2024-02-26T09:51:28;26.23;;;16.57;;
39994;SDS011;25686;51.908;10.418;2024-02-26T09:53:30;26.37;;;16.13;;
39994;SDS011;25686;51.908;10.418;2024-02-26T09:55:39;27.30;;;16.90;;
39994;SDS011;25686;51.908;10.418;2024-02-26T09:57:42;26.53;;;16.97;;
39994;SDS011;25686;51.908;10.418;2024-02-26T09:59:45;28.73;;;16.73;;
39994;SDS011;25686;51.908;10.418;2024-02-26T10:01:47;28.50;;;16.37;;
39994;SDS011;25686;51.908;10.418;2024-02-26T10:03:51;24.00;;;16.10;;
39994;SDS011;25686;51.908;10.418;2024-02-26T10:05:54;28.53;;;16.90;;
39994;SDS011;25686;51.908;10.418;2024-02-26T10:07:57;30.23;;;16.93;;
39994;SDS011;25686;51.908;10.418;2024-02-26T10:10:01;27.67;;;17.67;;
39994;SDS011;25686;51.908;10.418;2024-02-26T10:12:03;26.83;;;16.77;;
39994;SDS011;25686;51.908;10.418;2024-02-26T10:14:04;31.83;;;16.87;;
39994;SDS011;25686;51.908;10.418;2024-02-26T10:16:05;27.55;;;16.80;;
39994;SDS011;25686;51.908;10.418;2024-02-26T10:18:07;26.53;;;16.63;;
39994;SDS011;25686;51.908;10.418;2024-02-26T10:20:11;30.60;;;17.13;;
39994;SDS011;25686;51.908;10.418;2024-02-26T10:22:12;26.77;;;17.03;;
39994;SDS011;25686;51.908;10.418;2024-02-26T10:24:13;27.83;;;17.37;;
39994;SDS011;25686;51.908;10.418;2024-02-26T10:26:15;28.08;;;16.95;;
39994;SDS011;25686;51.908;10.418;2024-02-26T10:28:16;24.08;;;16.05;;
39994;SDS011;25686;51.908;10.418;2024-02-26T10:30:17;27.95;;;16.25;;
39994;SDS011;25686;51.908;10.418;2024-02-26T10:32:19;22.77;;;15.32;;
39994;SDS011;25686;51.908;10.418;2024-02-26T10:34:20;23.10;;;15.18;;
39994;SDS011;25686;51.908;10.418;2024-02-26T10:36:21;22.15;;;14.55;;
39994;SDS011;25686;51.908;10.418;2024-02-26T10:38:22;23.05;;;15.20;;
39994;SDS011;25686;51.908;10.418;2024-02-26T10:40:23;23.88;;;15.57;;
39994;SDS011;25686;51.908;10.418;2024-02-26T10:42:25;24.08;;;15.75;;
39994;SDS011;25686;51.908;10.418;2024-02-26T10:44:26;21.98;;;15.20;;
39994;SDS011;25686;51.908;10.418;2024-02-26T10:46:27;22.05;;;14.68;;
39994;SDS011;25686;51.908;10.418;2024-02-26T10:48:28;25.83;;;15.60;;
39994;SDS011;25686;51.908;10.418;2024-02-26T10:50:29;21.13;;;15.00;;
39994;SDS011;25686;51.908;10.418;2024-02-26T10:52:31;22.08;;;14.00;;
39994;SDS011;25686;51.908;10.418;2024-02-26T10:54:33;19.40;;;12.88;;
39994;SDS011;25686;51.908;10.418;2024-02-26T10:56:34;17.98;;;11.85;;
39994;SDS011;25686;51.908;10.418;2024-02-26T10:58:37;17.23;;;11.68;;
39994;SDS011;25686;51.908;10.418;2024-02-26T11:00:39;18.45;;;11.38;;
39994;SDS011;25686;51.908;10.418;2024-02-26T11:02:40;15.07;;;10.73;;
39994;SDS011;25686;51.908;10.418;2024-02-26T11:04:41;14.65;;;10.70;;
39994;SDS011;25686;51.908;10.418;2024-02-26T11:06:42;16.92;;;10.77;;
39994;SDS011;25686;51.908;10.418;2024-02-26T11:08:43;18.58;;;11.68;;
39994;SDS011;25686;51.908;10.418;2024-02-26T11:10:47;16.33;;;11.00;;
39994;SDS011;25686;51.908;10.418;2024-02-26T11:12:48;15.40;;;11.10;;
39994;SDS011;25686;51.908;10.418;2024-02-26T11:14:50;17.77;;;11.30;;
39994;SDS011;25686;51.908;10.418;2024-02-26T11:16:55;16.20;;;10.48;;
39994;SDS011;25686;51.908;10.418;2024-02-26T11:18:56;20.20;;;10.95;;
39994;SDS011;25686;51.908;10.418;2024-02-26T11:20:58;19.92;;;10.80;;
39994;SDS011;25686;51.908;10.418;2024-02-26T11:23:00;15.68;;;10.35;;
39994;SDS011;25686;51.908;10.418;2024-02-26T11:25:01;18.65;;;9.75;;
39994;SDS011;25686;51.908;10.418;2024-02-26T11:27:02;14.60;;;10.05;;
39994;SDS011;25686;51.908;10.418;2024-02-26T11:29:04;14.60;;;9.20;;
39994;SDS011;25686;51.908;10.418;2024-02-26T11:31:06;15.82;;;9.27;;
39994;SDS011;25686;51.908;10.418;2024-02-26T11:33:08;14.23;;;9.73;;
39994;SDS011;25686;51.908;10.418;2024-02-26T11:35:09;18.13;;;9.68;;
39994;SDS011;25686;51.908;10.418;2024-02-26T11:37:14;14.45;;;9.52;;
39994;SDS011;25686;51.908;10.418;2024-02-26T11:39:15;15.75;;;9.25;;
39994;SDS011;25686;51.908;10.418;2024-02-26T11:41:16;13.52;;;8.45;;
39994;SDS011;25686;51.908;10.418;2024-02-26T11:43:18;13.68;;;8.65;;
39994;SDS011;25686;51.908;10.418;2024-02-26T11:47:38;14.05;;;8.70;;
39994;SDS011;25686;51.908;10.418;2024-02-26T11:49:40;13.70;;;8.82;;
39994;SDS011;25686;51.908;10.418;2024-02-26T11:51:41;13.30;;;8.95;;
39994;SDS011;25686;51.908;10.418;2024-02-26T11:53:46;14.63;;;9.25;;